Time;durP1;ratioP1;P1;durP2;ratioP2;P2;SDS_P1;SDS_P2;PMS_P1;PMS_P2;Temp;Humidity;BMP_temperature;BMP_pressure;BME280_temperature;BME280_humidity;BME280_pressure;Samples;Min_cycle;Max_cycle;Signal;HPM_P1;HPM_P2
2023/06/23 00:00:05;;;;;;;;;13.50;11.00;;;;;19.89;64.26;101914.50;5047892;28;8930;-67
2023/06/23 00:02:39;;;;;;;;;12.50;10.00;;;;;19.82;64.34;101911.88;5051783;28;8831;-67
2023/06/23 00:05:11;;;;;;;;;16.00;14.33;;;;;19.80;64.50;101910.44;5052743;28;8840;-67
2023/06/23 00:07:37;;;;;;;;;12.25;12.25;;;;;19.76;64.58;101912.78;5052976;28;8909;-68
2023/06/23 00:10:05;;;;;;;;;11.67;10.67;;;;;19.75;64.79;101913.84;5052650;28;8839;-67
2023/06/23 00:12:36;;;;;;;;;13.25;12.25;;;;;19.67;64.83;101919.63;5053149;28;8834;-68
2023/06/23 00:15:04;;;;;;;;;10.00;9.00;;;;;19.65;65.00;101922.59;5051302;28;8880;-68
2023/06/23 00:17:31;;;;;;;;;14.25;13.50;;;;;19.64;65.05;101929.09;5053108;28;9740;-68
2023/06/23 00:19:57;;;;;;;;;18.00;18.00;;;;;19.64;64.61;101933.72;5052697;28;8847;-68
2023/06/23 00:22:27;;;;;;;;;13.00;12.33;;;;;19.60;64.90;101927.03;5052672;28;9207;-67
2023/06/23 00:24:54;;;;;;;;;14.00;13.67;;;;;19.57;65.10;101924.75;5051049;28;8961;-67
2023/06/23 00:27:20;;;;;;;;;17.33;15.33;;;;;19.55;65.36;101922.25;5051172;28;9761;-66
2023/06/23 00:29:47;;;;;;;;;14.67;14.67;;;;;19.54;65.37;101917.84;5052377;28;9050;-66
2023/06/23 00:32:13;;;;;;;;;17.25;13.00;;;;;19.52;65.51;101920.78;5051002;28;9103;-67
2023/06/23 00:34:40;;;;;;;;;13.67;13.67;;;;;19.54;65.44;101920.59;5052055;28;8823;-67
2023/06/23 00:37:09;;;;;;;;;21.67;18.00;;;;;19.55;65.28;101926.88;5052235;28;9031;-67
2023/06/23 00:39:35;;;;;;;;;10.00;10.00;;;;;19.55;65.59;101924.16;5050776;28;9149;-68
2023/06/23 00:42:05;;;;;;;;;12.33;12.33;;;;;19.59;65.39;101920.72;5052001;28;8912;-68
2023/06/23 00:44:33;;;;;;;;;8.25;7.00;;;;;19.59;65.32;101928.94;5051950;28;8978;-68
2023/06/23 00:47:02;;;;;;;;;13.33;13.33;;;;;19.58;65.48;101929.16;5052119;28;8804;-67
2023/06/23 00:49:29;;;;;;;;;14.67;14.67;;;;;19.60;65.32;101935.22;5050913;28;9011;-66
2023/06/23 00:52:01;;;;;;;;;14.67;14.67;;;;;19.57;64.74;101939.25;5051005;28;9083;-68
2023/06/23 00:54:34;;;;;;;;;17.33;17.33;;;;;19.53;65.43;101948.97;5034172;28;9178;-68
2023/06/23 00:57:04;;;;;;;;;15.33;14.33;;;;;19.49;65.27;101939.56;5052024;28;8995;-68
2023/06/23 00:59:32;;;;;;;;;15.00;15.00;;;;;19.48;65.19;101946.06;5050779;28;9043;-67
2023/06/23 01:02:01;;;;;;;;;14.67;12.33;;;;;19.47;65.22;101944.41;5052133;28;9046;-68
2023/06/23 01:04:32;;;;;;;;;15.25;14.00;;;;;19.46;65.36;101948.19;5051601;28;9114;-67
2023/06/23 01:07:29;;;;;;;;;18.33;17.00;;;;;19.43;65.07;101952.19;5050544;28;8831;-68
2023/06/23 01:10:03;;;;;;;;;13.00;11.67;;;;;19.36;65.19;101956.88;5034365;28;9170;-67
2023/06/23 01:12:55;;;;;;;;;12.25;9.25;;;;;19.37;64.93;101955.84;5050091;28;8961;-67
2023/06/23 01:15:33;;;;;;;;;15.67;14.33;;;;;19.32;65.11;101952.94;5041608;28;8851;-67
2023/06/23 01:18:09;;;;;;;;;16.00;13.50;;;;;19.29;64.98;101958.88;5051851;28;9779;-67
2023/06/23 01:20:40;;;;;;;;;15.33;13.33;;;;;19.28;65.27;101954.44;5050617;28;8827;-68
2023/06/23 01:23:45;;;;;;;;;16.00;13.00;;;;;19.29;64.83;101949.84;5050581;28;9758;-67
2023/06/23 01:26:54;;;;;;;;;13.75;13.25;;;;;19.26;65.43;101953.84;5050056;28;8908;-67
2023/06/23 01:29:28;;;;;;;;;8.50;8.50;;;;;19.30;65.36;101956.97;5051441;28;8847;-67
2023/06/23 01:32:01;;;;;;;;;16.00;15.33;;;;;19.25;65.56;101961.22;5050224;28;8843;-67
2023/06/23 01:34:52;;;;;;;;;12.33;12.00;;;;;19.29;66.04;101968.97;5051377;28;8903;-68
2023/06/23 01:37:27;;;;;;;;;15.33;14.00;;;;;19.27;66.16;101969.16;5050160;28;8919;-67
2023/06/23 01:39:57;;;;;;;;;12.25;12.25;;;;;19.26;66.42;101971.06;5050079;28;9024;-67
2023/06/23 01:42:38;;;;;;;;;14.50;14.00;;;;;19.27;66.94;101977.34;5033553;28;9268;-67
2023/06/23 01:45:09;;;;;;;;;14.67;13.00;;;;;19.27;67.25;101980.91;5051095;28;8831;-67
2023/06/23 01:47:38;;;;;;;;;20.67;17.67;;;;;19.28;67.78;101981.75;5050277;28;8932;-66
2023/06/23 01:50:08;;;;;;;;;16.25;14.00;;;;;19.30;67.94;101981.53;5050989;28;9883;-67
2023/06/23 01:52:38;;;;;;;;;14.67;12.67;;;;;19.31;68.22;101983.22;5049891;28;8945;-67
2023/06/23 01:55:06;;;;;;;;;15.67;13.67;;;;;19.31;68.41;101994.13;5050738;28;8926;-67
2023/06/23 01:57:36;;;;;;;;;12.75;12.75;;;;;19.35;68.59;101989.88;5051346;28;9092;-67
2023/06/23 02:00:11;;;;;;;;;16.33;12.00;;;;;19.35;68.57;101996.19;5033039;28;8874;-67
2023/06/23 02:02:40;;;;;;;;;12.67;12.67;;;;;19.32;68.84;102010.28;5051129;28;8913;-67
2023/06/23 02:05:09;;;;;;;;;15.00;14.00;;;;;19.31;68.95;102007.78;5049467;28;9014;-65
2023/06/23 02:07:39;;;;;;;;;17.67;15.67;;;;;19.29;69.14;102005.28;5050581;28;8997;-68
2023/06/23 02:10:07;;;;;;;;;20.67;20.33;;;;;19.24;69.69;102014.16;5050659;28;9003;-67
2023/06/23 02:12:36;;;;;;;;;20.00;19.00;;;;;19.22;70.01;102018.16;5050786;28;9323;-67
2023/06/23 02:15:05;;;;;;;;;16.00;14.00;;;;;19.23;70.29;102023.38;5049273;28;8940;-66
2023/06/23 02:17:34;;;;;;;;;18.67;16.00;;;;;19.21;70.55;102017.31;5050722;28;8918;-67
2023/06/23 02:20:11;;;;;;;;;15.67;15.67;;;;;19.18;70.88;102017.75;5049415;28;8969;-67
2023/06/23 02:22:40;;;;;;;;;18.33;16.67;;;;;19.16;71.06;102019.88;5049499;28;9298;-67
2023/06/23 02:25:07;;;;;;;;;19.00;18.00;;;;;19.18;71.23;102027.84;5048004;28;9174;-67
2023/06/23 02:27:34;;;;;;;;;21.67;19.00;;;;;19.15;71.45;102029.13;5050419;28;9962;-66
2023/06/23 02:30:02;;;;;;;;;19.00;15.00;;;;;19.14;71.54;102024.72;5050183;28;9174;-67
2023/06/23 02:32:29;;;;;;;;;17.67;16.00;;;;;19.14;71.84;102027.44;5050557;28;9173;-66
2023/06/23 02:34:57;;;;;;;;;15.67;15.00;;;;;19.13;71.83;102025.78;5050150;28;8902;-66
2023/06/23 02:37:26;;;;;;;;;12.00;12.00;;;;;19.13;72.17;102035.88;5032720;28;9140;-66
2023/06/23 02:40:00;;;;;;;;;15.00;15.00;;;;;19.13;72.15;102036.72;5048917;28;8924;-66
2023/06/23 02:42:35;;;;;;;;;20.25;16.00;;;;;19.13;72.08;102052.25;5050520;28;8912;-66
2023/06/23 02:45:07;;;;;;;;;20.33;18.33;;;;;19.14;72.35;102059.38;5050041;28;8835;-67
2023/06/23 02:47:37;;;;;;;;;20.33;19.00;;;;;19.10;72.50;102067.16;5048995;28;9009;-66
2023/06/23 02:50:08;;;;;;;;;14.00;11.00;;;;;19.10;72.57;102080.81;5050024;28;9864;-66
2023/06/23 02:52:35;;;;;;;;;15.33;15.00;;;;;19.08;72.62;102079.34;5050149;28;8908;-65
2023/06/23 02:55:08;;;;;;;;;25.67;24.67;;;;;19.06;72.83;102074.13;5048556;28;9050;-67
2023/06/23 02:57:38;;;;;;;;;24.33;24.00;;;;;19.07;73.05;102070.31;5048706;28;9406;-67
2023/06/23 03:00:18;;;;;;;;;25.67;24.00;;;;;19.09;72.82;102070.97;5050140;28;9320;-67
2023/06/23 03:02:48;;;;;;;;;20.67;19.00;;;;;19.09;72.81;102076.41;5034021;28;9962;-66
2023/06/23 03:05:15;;;;;;;;;29.25;27.00;;;;;19.07;72.96;102078.50;5049608;28;9263;-66
2023/06/23 03:07:41;;;;;;;;;26.33;24.67;;;;;19.08;72.97;102074.75;5048650;28;9543;-67
2023/06/23 03:10:08;;;;;;;;;25.25;21.50;;;;;19.09;72.83;102070.97;5049712;28;9422;-66
2023/06/23 03:12:38;;;;;;;;;24.33;24.33;;;;;19.08;72.83;102074.75;5049831;28;10176;-67
2023/06/23 03:15:05;;;;;;;;;29.33;27.00;;;;;19.07;72.98;102083.97;5032045;28;9419;-67
2023/06/23 03:17:38;;;;;;;;;26.33;26.33;;;;;19.07;72.85;102085.88;5049799;28;9554;-67
2023/06/23 03:20:27;;;;;;;;;24.00;22.67;;;;;19.05;73.01;102088.84;5048373;28;9302;-66
2023/06/23 03:23:03;;;;;;;;;28.00;22.33;;;;;19.02;72.79;102081.91;5048482;28;9461;-66
2023/06/23 03:25:30;;;;;;;;;21.00;20.67;;;;;18.99;73.45;102085.06;5048546;28;9336;-66
2023/06/23 03:28:05;;;;;;;;;23.00;21.33;;;;;18.99;73.40;102085.06;5049893;28;9275;-66
2023/06/23 03:31:06;;;;;;;;;20.67;19.67;;;;;19.00;73.35;102083.22;5048340;28;9376;-66
2023/06/23 03:33:37;;;;;;;;;18.00;17.67;;;;;18.98;73.63;102088.03;5038459;28;9366;-66
2023/06/23 03:36:19;;;;;;;;;25.67;22.00;;;;;18.98;73.45;102090.75;5051247;28;9218;-67
2023/06/23 03:38:55;;;;;;;;;31.25;25.75;;;;;18.97;73.65;102089.09;5053977;28;9228;-67
2023/06/23 03:41:22;;;;;;;;;27.50;26.00;;;;;18.94;73.89;102093.09;5052356;28;9381;-66
2023/06/23 03:43:54;;;;;;;;;31.25;28.25;;;;;18.92;74.21;102100.66;5035764;28;9457;-67
2023/06/23 03:46:26;;;;;;;;;32.50;29.75;;;;;18.91;74.21;102098.97;5052264;28;9887;-67
2023/06/23 03:48:57;;;;;;;;;37.50;31.25;;;;;18.89;74.28;102112.00;5053448;28;9767;-65
2023/06/23 03:51:28;;;;;;;;;28.25;27.00;;;;;18.88;74.20;102113.06;5053274;28;9690;-66
2023/06/23 03:53:58;;;;;;;;;30.00;26.25;;;;;18.90;74.36;102119.13;5052143;28;10172;-66
2023/06/23 03:56:28;;;;;;;;;25.00;24.50;;;;;18.88;74.36;102118.53;5052070;28;9598;-67
2023/06/23 03:58:58;;;;;;;;;36.50;33.25;;;;;18.87;74.32;102119.56;5051878;28;9535;-67
2023/06/23 04:01:28;;;;;;;;;43.25;36.25;;;;;18.86;74.30;102125.25;5053095;28;9766;-66
2023/06/23 04:03:57;;;;;;;;;34.25;29.25;;;;;18.84;74.31;102124.63;5051786;28;9706;-67
2023/06/23 04:06:27;;;;;;;;;27.75;26.00;;;;;18.83;74.42;102125.69;5052865;28;9770;-66
2023/06/23 04:08:54;;;;;;;;;30.25;26.25;;;;;18.85;74.48;102124.41;5053225;28;9725;-68
2023/06/23 04:11:24;;;;;;;;;33.00;29.00;;;;;18.85;74.42;102134.50;5051618;28;9618;-69
2023/06/23 04:13:52;;;;;;;;;31.00;30.75;;;;;18.89;74.01;102130.28;5051564;28;9771;-69
2023/06/23 04:16:20;;;;;;;;;26.25;24.50;;;;;18.89;74.34;102133.00;5034909;28;10522;-69
2023/06/23 04:18:49;;;;;;;;;26.75;22.50;;;;;18.88;74.13;102136.78;5052732;28;9751;-69
2023/06/23 04:21:17;;;;;;;;;29.25;27.25;;;;;18.89;74.31;102138.47;5051542;28;9620;-69
2023/06/23 04:23:45;;;;;;;;;27.50;26.25;;;;;18.89;74.26;102141.19;5052806;28;9551;-68
2023/06/23 04:26:13;;;;;;;;;24.75;24.25;;;;;18.88;74.24;102140.38;5052434;28;9678;-68
2023/06/23 04:28:43;;;;;;;;;29.25;27.50;;;;;18.88;74.29;102145.81;5051341;28;9374;-69
2023/06/23 04:31:11;;;;;;;;;27.00;26.00;;;;;18.89;74.60;102152.13;5051276;28;9556;-68
2023/06/23 04:33:37;;;;;;;;;23.00;23.00;;;;;18.89;74.43;102146.66;5052819;28;9404;-68
2023/06/23 04:36:16;;;;;;;;;30.00;24.25;;;;;18.89;74.19;102146.66;5050925;28;9930;-68
2023/06/23 04:39:08;;;;;;;;;26.75;25.50;;;;;18.88;74.32;102140.38;5052572;28;9459;-68
2023/06/23 04:41:39;;;;;;;;;22.50;20.25;;;;;18.90;74.52;102140.13;5052280;28;9550;-68
2023/06/23 04:44:08;;;;;;;;;22.25;22.00;;;;;18.91;74.58;102144.53;5050984;28;9436;-68
2023/06/23 04:46:40;;;;;;;;;23.25;21.00;;;;;18.92;74.51;102138.88;5050689;28;9539;-68
2023/06/23 04:49:12;;;;;;;;;27.75;24.75;;;;;18.93;74.61;102142.44;5051663;28;9458;-68
2023/06/23 04:51:48;;;;;;;;;24.25;22.50;;;;;18.94;74.42;102146.81;5050778;28;9447;-68
2023/06/23 04:54:25;;;;;;;;;17.33;17.33;;;;;18.95;74.36;102151.22;5051874;28;9531;-68
2023/06/23 04:57:00;;;;;;;;;20.00;18.67;;;;;18.96;74.49;102156.47;5050933;28;9382;-68
2023/06/23 04:59:33;;;;;;;;;22.75;20.25;;;;;18.98;74.38;102156.25;5050654;28;9378;-68
2023/06/23 05:02:02;;;;;;;;;24.67;20.00;;;;;18.98;74.50;102150.78;5050974;28;9443;-68
2023/06/23 05:04:33;;;;;;;;;24.75;23.25;;;;;19.00;74.39;102154.16;5050312;28;9255;-68
2023/06/23 05:07:02;;;;;;;;;26.00;23.75;;;;;18.99;74.33;102147.00;5052203;28;9429;-68
2023/06/23 05:09:33;;;;;;;;;27.00;27.00;;;;;18.99;74.70;102153.28;5072162;23;9640;-67
2023/06/23 05:12:02;;;;;;;;;33.25;29.50;;;;;18.99;74.60;102153.28;5051883;28;9538;-68
2023/06/23 05:14:32;;;;;;;;;25.33;22.00;;;;;19.02;74.92;102157.50;5050069;28;9695;-68
2023/06/23 05:17:00;;;;;;;;;21.33;20.33;;;;;19.05;74.61;102159.78;5051943;28;9359;-68
2023/06/23 05:19:29;;;;;;;;;23.50;22.50;;;;;19.09;74.48;102161.03;5053017;28;9321;-65
2023/06/23 05:21:59;;;;;;;;;21.33;20.00;;;;;19.12;74.39;102163.31;5052410;28;9466;-66
2023/06/23 05:24:27;;;;;;;;;24.33;22.33;;;;;19.11;74.39;102161.63;5051794;28;9251;-67
2023/06/23 05:26:59;;;;;;;;;24.75;19.00;;;;;19.15;74.41;102170.22;5055996;28;9285;-67
2023/06/23 05:29:27;;;;;;;;;22.00;21.67;;;;;19.22;74.49;102177.31;5069261;28;9448;-67
2023/06/23 05:31:55;;;;;;;;;26.75;22.50;;;;;19.31;74.38;102168.88;5052113;28;9648;-68
2023/06/23 05:34:24;;;;;;;;;25.67;19.33;;;;;19.44;74.27;102185.16;5051713;28;9373;-67
2023/06/23 05:36:52;;;;;;;;;23.00;23.00;;;;;19.60;73.81;102186.50;5051757;28;9298;-67
2023/06/23 05:39:20;;;;;;;;;19.33;17.00;;;;;19.73;73.06;102190.03;5052129;28;9395;-67
2023/06/23 05:41:47;;;;;;;;;22.33;22.00;;;;;19.85;72.25;102189.28;5052791;28;9186;-68
2023/06/23 05:44:13;;;;;;;;;20.33;20.33;;;;;19.88;72.01;102197.03;5053959;28;9232;-67
2023/06/23 05:46:43;;;;;;;;;21.00;17.67;;;;;19.95;71.72;102195.09;5060562;28;9315;-68
2023/06/23 05:49:14;;;;;;;;;18.00;16.67;;;;;20.05;71.68;102189.09;5050703;28;9079;-67
2023/06/23 05:51:42;;;;;;;;;16.00;16.00;;;;;20.14;71.16;102202.28;5051416;28;9681;-68
2023/06/23 05:54:11;;;;;;;;;20.00;15.67;;;;;20.19;70.62;102196.97;5050720;28;9144;-67
2023/06/23 05:56:48;;;;;;;;;16.67;15.33;;;;;20.25;70.15;102193.34;5050827;28;8935;-67
2023/06/23 05:59:23;;;;;;;;;18.00;17.67;;;;;20.22;70.20;102209.38;5049272;28;9170;-67
2023/06/23 06:01:55;;;;;;;;;16.33;13.33;;;;;20.25;70.25;102212.50;5050942;28;9010;-67
2023/06/23 06:04:26;;;;;;;;;15.00;12.75;;;;;20.28;70.28;102224.03;5050563;28;8976;-67
2023/06/23 06:06:54;;;;;;;;;14.00;14.00;;;;;20.30;70.02;102221.91;5050776;28;8918;-67
2023/06/23 06:09:23;;;;;;;;;21.00;18.00;;;;;20.32;70.02;102219.78;5066062;28;9138;-67
2023/06/23 06:11:52;;;;;;;;;15.75;15.25;;;;;20.33;69.87;102222.28;5065779;28;8945;-68
2023/06/23 06:14:20;;;;;;;;;16.33;15.67;;;;;20.31;69.67;102227.16;5049210;28;9568;-67
2023/06/23 06:16:47;;;;;;;;;21.00;20.33;;;;;20.24;69.67;102232.66;5050910;28;9032;-68
2023/06/23 06:19:18;;;;;;;;;12.75;12.75;;;;;20.20;69.99;102233.34;5050473;28;9726;-67
2023/06/23 06:21:48;;;;;;;;;17.33;16.00;;;;;20.19;69.89;102243.44;5050457;28;9701;-68
2023/06/23 06:24:16;;;;;;;;;13.25;13.25;;;;;20.19;69.80;102245.34;5050226;28;9006;-67
2023/06/23 06:26:46;;;;;;;;;16.75;16.25;;;;;20.14;69.37;102240.56;5050360;28;8854;-67
2023/06/23 06:29:17;;;;;;;;;11.25;11.25;;;;;20.12;69.52;102237.19;5050365;28;9600;-68
2023/06/23 06:31:47;;;;;;;;;12.25;11.75;;;;;20.12;69.58;102244.56;5049039;28;8896;-67
2023/06/23 06:34:17;;;;;;;;;13.25;12.00;;;;;20.10;69.66;102242.06;5065670;28;8959;-67
2023/06/23 06:36:45;;;;;;;;;8.00;8.00;;;;;20.12;69.66;102247.31;5051153;28;8871;-68
2023/06/23 06:39:13;;;;;;;;;9.75;8.25;;;;;20.13;69.91;102244.34;5065964;28;8830;-68
2023/06/23 06:41:41;;;;;;;;;12.00;11.33;;;;;20.18;69.75;102247.25;5048912;28;8837;-68
2023/06/23 06:44:14;;;;;;;;;15.00;12.75;;;;;20.16;69.94;102246.63;5049142;28;9078;-67
2023/06/23 06:46:43;;;;;;;;;16.50;11.75;;;;;20.16;69.98;102248.53;5050766;28;8857;-67
2023/06/23 06:49:12;;;;;;;;;11.25;11.00;;;;;20.17;69.79;102256.50;5050343;28;8845;-67
2023/06/23 06:51:40;;;;;;;;;10.25;9.75;;;;;20.20;69.72;102256.06;5050286;28;8833;-67
2023/06/23 06:54:07;;;;;;;;;10.75;8.75;;;;;20.24;69.75;102259.19;5049776;28;8848;-67
2023/06/23 06:56:34;;;;;;;;;13.00;12.33;;;;;20.27;69.45;102260.66;5048662;28;8822;-67
2023/06/23 06:59:02;;;;;;;;;10.00;10.00;;;;;20.26;69.14;102268.00;5049644;28;8940;-67
2023/06/23 07:01:29;;;;;;;;;10.75;9.50;;;;;20.27;68.92;102264.22;5050167;28;8841;-67
2023/06/23 07:03:56;;;;;;;;;9.00;9.00;;;;;20.29;68.51;102263.97;5048348;28;8853;-67
2023/06/23 07:06:25;;;;;;;;;10.25;10.25;;;;;20.29;68.59;102256.59;5049694;28;9038;-67
2023/06/23 07:08:52;;;;;;;;;14.25;10.75;;;;;20.29;68.00;102266.72;5061790;28;8842;-67
2023/06/23 07:11:19;;;;;;;;;7.75;7.75;;;;;20.32;68.17;102255.34;5069395;28;8858;-67
2023/06/23 07:13:46;;;;;;;;;10.25;9.25;;;;;20.37;67.83;102266.41;5069753;28;8888;-69
2023/06/23 07:16:12;;;;;;;;;9.00;8.00;;;;;20.39;67.97;102267.06;5069782;28;8806;-67
2023/06/23 07:18:39;;;;;;;;;9.25;8.75;;;;;20.46;68.08;102262.38;5069992;28;8875;-67
2023/06/23 07:21:05;;;;;;;;;6.25;6.25;;;;;20.56;67.81;102262.69;5069772;28;8845;-67
2023/06/23 07:23:32;;;;;;;;;10.50;10.00;;;;;20.60;67.30;102255.72;5069704;28;8814;-67
2023/06/23 07:25:58;;;;;;;;;8.50;8.50;;;;;20.63;67.21;102266.19;5069425;28;8833;-67
2023/06/23 07:28:25;;;;;;;;;7.50;7.50;;;;;20.68;67.22;102271.00;5051848;28;9613;-68
2023/06/23 07:30:51;;;;;;;;;8.25;7.50;;;;;20.73;66.68;102271.13;5069528;28;8818;-68
2023/06/23 07:33:18;;;;;;;;;7.25;7.25;;;;;20.77;66.55;102277.00;5069677;28;8838;-68
2023/06/23 07:35:44;;;;;;;;;8.50;6.75;;;;;20.80;65.84;102273.81;5069474;28;8818;-68
2023/06/23 07:38:11;;;;;;;;;7.75;7.00;;;;;20.82;65.74;102282.63;5069607;28;8826;-68
2023/06/23 07:40:37;;;;;;;;;8.75;8.75;;;;;20.84;64.79;102283.25;5051872;28;8831;-67
2023/06/23 07:43:04;;;;;;;;;8.50;8.00;;;;;20.83;64.43;102276.09;5069524;28;8806;-68
2023/06/23 07:45:30;;;;;;;;;6.75;6.50;;;;;20.82;63.37;102274.41;5069233;28;8806;-68
2023/06/23 07:47:57;;;;;;;;;7.00;7.00;;;;;20.82;62.42;102275.25;5069385;28;8847;-68
2023/06/23 07:50:23;;;;;;;;;11.50;8.25;;;;;20.85;62.32;102273.97;5051560;28;8945;-68
2023/06/23 07:52:54;;;;;;;;;6.00;6.00;;;;;20.87;62.62;102280.88;5051712;28;8810;-68
2023/06/23 07:55:21;;;;;;;;;7.00;7.00;;;;;20.91;62.67;102281.28;5067996;28;9584;-67
2023/06/23 07:57:48;;;;;;;;;7.25;7.00;;;;;20.97;62.10;102283.09;5069308;28;8822;-67
2023/06/23 08:00:16;;;;;;;;;8.50;7.75;;;;;21.02;61.51;102274.19;5069457;28;8831;-68
2023/06/23 08:02:42;;;;;;;;;7.00;7.00;;;;;21.07;61.70;102266.13;5051340;28;8822;-68
2023/06/23 08:05:10;;;;;;;;;5.75;5.00;;;;;21.14;61.94;102264.97;5069281;28;9509;-68
2023/06/23 08:07:36;;;;;;;;;3.75;3.50;;;;;21.14;61.17;102272.34;5068854;28;8867;-68
2023/06/23 08:10:03;;;;;;;;;6.75;6.75;;;;;21.16;59.52;102273.81;5067833;28;8861;-68
2023/06/23 08:12:29;;;;;;;;;6.50;6.50;;;;;21.21;59.36;102275.84;5051502;28;8833;-68
2023/06/23 08:14:56;;;;;;;;;6.00;5.00;;;;;21.26;59.95;102275.16;5069077;28;8803;-68
2023/06/23 08:17:22;;;;;;;;;8.50;8.50;;;;;21.28;60.06;102281.25;5069604;28;8818;-67
2023/06/23 08:19:49;;;;;;;;;7.00;7.00;;;;;21.32;59.91;102285.19;5051381;28;9665;-67
2023/06/23 08:22:16;;;;;;;;;7.50;7.00;;;;;21.35;59.51;102284.75;5069518;28;8811;-67
2023/06/23 08:24:42;;;;;;;;;6.75;6.25;;;;;21.36;59.12;102290.00;5072603;28;8837;-66
2023/06/23 08:27:09;;;;;;;;;7.25;7.00;;;;;21.37;56.87;102293.56;5072857;28;8822;-66
2023/06/23 08:29:37;;;;;;;;;4.00;4.00;;;;;21.38;57.63;102293.34;5055159;28;8810;-66
2023/06/23 08:32:04;;;;;;;;;7.25;7.25;;;;;21.40;56.21;102290.38;5072532;28;9567;-66
2023/06/23 08:34:30;;;;;;;;;5.00;4.50;;;;;21.42;55.65;102296.44;5072329;28;8818;-66
2023/06/23 08:36:57;;;;;;;;;5.75;4.00;;;;;21.41;55.94;102283.81;5072901;28;8841;-67
2023/06/23 08:39:24;;;;;;;;;9.00;9.00;;;;;21.46;55.30;102303.13;5072429;28;8798;-67
2023/06/23 08:41:50;;;;;;;;;6.00;6.00;;;;;21.51;54.65;102303.28;5054437;28;9557;-67
2023/06/23 08:44:18;;;;;;;;;6.75;5.00;;;;;21.52;53.92;102295.91;5072339;28;8972;-66
2023/06/23 08:46:52;;;;;;;;;4.00;4.00;;;;;21.54;53.00;102297.34;5071143;28;8813;-68
2023/06/23 08:49:34;;;;;;;;;5.00;5.00;;;;;21.58;52.85;102306.78;5071930;28;8811;-68
2023/06/23 08:52:01;;;;;;;;;6.75;4.50;;;;;21.64;53.31;102305.03;5072028;28;8856;-68
2023/06/23 08:54:29;;;;;;;;;4.25;4.25;;;;;21.70;53.33;102307.66;5054070;28;8853;-68
2023/06/23 08:56:57;;;;;;;;;7.00;6.00;;;;;21.76;51.84;102316.03;5072256;28;8880;-68
2023/06/23 08:59:24;;;;;;;;;8.00;5.00;;;;;21.78;52.37;102320.19;5071905;28;8853;-68
2023/06/23 09:01:51;;;;;;;;;4.50;4.00;;;;;21.79;50.64;102323.75;5053854;28;8834;-66
2023/06/23 09:04:19;;;;;;;;;6.00;6.00;;;;;21.87;50.35;102331.66;5071922;28;8843;-66
2023/06/23 09:06:46;;;;;;;;;6.00;4.00;;;;;21.90;50.90;102334.78;5071759;28;8980;-66
2023/06/23 09:09:12;;;;;;;;;4.25;4.25;;;;;21.96;51.14;102333.84;5054128;28;8940;-67
2023/06/23 09:11:40;;;;;;;;;6.00;6.00;;;;;22.04;51.51;102332.69;5054297;28;8838;-66
2023/06/23 09:14:09;;;;;;;;;7.50;5.00;;;;;22.10;50.13;102330.91;5070467;28;8838;-66
2023/06/23 09:16:38;;;;;;;;;5.25;3.75;;;;;22.13;50.17;102330.47;5071707;28;8810;-66
2023/06/23 09:19:07;;;;;;;;;5.00;4.75;;;;;22.19;51.71;102324.84;5053560;28;8818;-66
2023/06/23 09:21:35;;;;;;;;;6.00;6.00;;;;;22.26;52.71;102330.25;5054040;28;8919;-69
2023/06/23 09:24:04;;;;;;;;;5.75;5.75;;;;;22.29;52.09;102332.53;5053579;28;8837;-67
2023/06/23 09:26:49;;;;;;;;;7.50;6.75;;;;;22.33;51.48;102328.22;5071638;28;8837;-67
2023/06/23 09:29:18;;;;;;;;;6.00;6.00;;;;;22.37;49.66;102342.31;5071299;28;8961;-66
2023/06/23 09:31:48;;;;;;;;;5.00;5.00;;;;;22.41;47.26;102338.84;5071590;28;8826;-69
2023/06/23 09:34:31;;;;;;;;;5.75;4.75;;;;;22.47;47.75;102337.06;5069360;28;8931;-67
2023/06/23 09:37:12;;;;;;;;;3.50;3.50;;;;;22.51;47.67;102349.22;5071462;28;8892;-67
2023/06/23 09:39:40;;;;;;;;;6.50;5.00;;;;;22.51;47.88;102343.75;5071488;28;9568;-67
2023/06/23 09:42:12;;;;;;;;;4.25;4.25;;;;;22.50;46.57;102353.06;5053384;28;8826;-66
2023/06/23 09:44:41;;;;;;;;;3.75;2.75;;;;;22.51;45.56;102354.72;5071126;28;8884;-66
2023/06/23 09:47:08;;;;;;;;;4.00;3.75;;;;;22.49;45.82;102343.16;5053293;28;8839;-66
2023/06/23 09:49:39;;;;;;;;;5.00;4.00;;;;;22.54;45.47;102347.94;5071049;28;8826;-66
2023/06/23 09:52:07;;;;;;;;;3.50;3.50;;;;;22.54;45.21;102351.50;5070788;28;8841;-67
2023/06/23 09:54:36;;;;;;;;;5.75;4.50;;;;;22.56;45.25;102343.03;5053071;28;8826;-67
2023/06/23 09:57:22;;;;;;;;;3.00;3.00;;;;;22.58;45.33;102344.47;5070859;28;8806;-66
2023/06/23 09:59:52;;;;;;;;;6.75;6.00;;;;;22.67;45.31;102353.19;5070873;28;8802;-67
2023/06/23 10:02:24;;;;;;;;;6.50;4.00;;;;;22.69;46.07;102351.88;5052694;28;8830;-66
2023/06/23 10:05:01;;;;;;;;;4.00;3.00;;;;;22.70;46.59;102355.47;5070488;28;8802;-67
2023/06/23 10:07:28;;;;;;;;;4.00;4.00;;;;;22.74;46.51;102353.06;5052693;28;8874;-67
2023/06/23 10:09:57;;;;;;;;;7.00;5.75;;;;;22.73;45.30;102351.38;5052814;28;9658;-67
2023/06/23 10:12:44;;;;;;;;;5.50;4.25;;;;;22.77;45.66;102349.81;5070379;28;8857;-67
2023/06/23 10:15:11;;;;;;;;;4.00;4.00;;;;;22.78;45.82;102351.53;5053060;28;8853;-67
2023/06/23 10:17:38;;;;;;;;;5.50;5.50;;;;;22.83;45.60;102357.97;5070430;28;8826;-69
2023/06/23 10:20:05;;;;;;;;;7.50;5.50;;;;;22.91;46.01;102354.03;5070507;28;8802;-66
2023/06/23 10:22:36;;;;;;;;;4.50;4.50;;;;;22.94;45.75;102353.56;5068965;28;8838;-66
2023/06/23 10:25:08;;;;;;;;;3.50;3.00;;;;;22.95;46.20;102353.31;5070145;28;8802;-67
2023/06/23 10:27:35;;;;;;;;;6.25;3.75;;;;;22.99;46.03;102358.34;5052616;28;8840;-67
2023/06/23 10:30:03;;;;;;;;;5.00;4.00;;;;;23.02;45.87;102361.44;5070251;28;8813;-66
2023/06/23 10:32:33;;;;;;;;;4.25;4.25;;;;;23.05;45.39;102363.72;5070221;28;8955;-67
2023/06/23 10:35:04;;;;;;;;;7.00;5.50;;;;;23.12;44.61;102358.06;5069914;28;9632;-66
2023/06/23 10:37:31;;;;;;;;;6.00;6.00;;;;;23.10;44.54;102357.50;5069081;28;8825;-67
2023/06/23 10:40:18;;;;;;;;;3.25;3.25;;;;;23.12;45.01;102360.81;5054469;28;8814;-71
2023/06/23 10:42:50;;;;;;;;;6.25;6.25;;;;;23.18;44.33;102368.94;5069143;28;9627;-67
2023/06/23 10:45:16;;;;;;;;;5.75;5.75;;;;;23.25;44.27;102368.78;5069270;28;9567;-67
2023/06/23 10:47:45;;;;;;;;;4.75;4.75;;;;;23.27;44.75;102366.66;5052199;28;8899;-67
2023/06/23 10:50:14;;;;;;;;;4.00;4.00;;;;;23.29;44.89;102361.72;5052055;28;8834;-67
2023/06/23 10:52:42;;;;;;;;;7.50;6.75;;;;;23.30;44.83;102379.91;5051947;28;8826;-67
2023/06/23 10:55:41;;;;;;;;;4.25;4.25;;;;;23.34;44.31;102369.28;5069507;28;8806;-66
2023/06/23 10:58:24;;;;;;;;;4.00;4.00;;;;;23.40;44.70;102371.88;5069614;28;8807;-68
2023/06/23 11:00:53;;;;;;;;;4.75;4.00;;;;;23.48;45.27;102365.16;5069699;28;8877;-67
2023/06/23 11:03:33;;;;;;;;;6.50;6.50;;;;;23.50;45.53;102373.16;5051944;28;9660;-68
2023/06/23 11:06:04;;;;;;;;;5.00;5.00;;;;;23.47;44.89;102373.66;5035220;28;8818;-67
2023/06/23 11:08:35;;;;;;;;;7.50;6.25;;;;;23.48;44.58;102378.91;5092783;22;8873;-66
2023/06/23 11:11:05;;;;;;;;;7.50;5.00;;;;;23.49;45.06;102383.31;5070175;28;8823;-66
2023/06/23 11:13:37;;;;;;;;;3.75;3.50;;;;;23.49;45.13;102377.81;5070396;28;8823;-69
2023/06/23 11:16:05;;;;;;;;;5.75;4.75;;;;;23.60;44.16;102387.94;5068573;28;8839;-68
2023/06/23 11:18:32;;;;;;;;;5.50;4.50;;;;;23.61;43.93;102384.13;5070251;28;8815;-69
2023/06/23 11:21:17;;;;;;;;;6.75;5.75;;;;;23.66;43.51;102381.53;5069941;28;8945;-67
2023/06/23 11:24:20;;;;;;;;;6.25;6.25;;;;;23.67;44.24;102379.59;5068283;28;8827;-67
2023/06/23 11:27:00;;;;;;;;;5.25;5.25;;;;;23.75;44.89;102383.88;5068484;28;8850;-67
2023/06/23 11:29:27;;;;;;;;;6.50;6.00;;;;;23.80;43.89;102378.47;5068552;28;8849;-67
2023/06/23 11:32:07;;;;;;;;;7.75;7.75;;;;;23.87;44.71;102377.25;5068352;28;8847;-67
2023/06/23 11:34:49;;;;;;;;;8.25;5.50;;;;;23.78;44.31;102391.63;5069726;28;9576;-70
2023/06/23 11:37:16;;;;;;;;;4.25;4.00;;;;;23.74;44.59;102394.06;5068642;28;8827;-68
2023/06/23 11:39:43;;;;;;;;;4.00;4.00;;;;;23.67;44.32;102391.44;5069704;28;8842;-68